TimeEST,TemperatureF,Dew PointF,Humidity,Sea Level PressureIn,VisibilityMPH,Wind Direction,Wind SpeedMPH,Gust SpeedMPH,PrecipitationIn,Events,Conditions,WindDirDegrees,DateUTC
12:27 AM,26.6,23.0,86,30.01,1.8,Calm,Calm,-,0.00,Snow,Light Snow,0,2012-11-29 05:27:00
12:33 AM,26.6,23.0,86,30.01,3.0,Calm,Calm,-,0.00,Snow,Light Snow,0,2012-11-29 05:33:00
12:52 AM,25.0,21.9,88,30.06,10.0,Calm,Calm,-,0.00,,Overcast,0,2012-11-29 05:52:00
1:01 AM,26.6,23.0,86,30.00,10.0,Variable,5.8,-,N/A,,Overcast,0,2012-11-29 06:01:00
1:35 AM,28.4,23.0,80,30.02,2.5,NW,4.6,-,0.00,Snow,Light Snow,310,2012-11-29 06:35:00
1:43 AM,28.4,24.8,86,30.03,1.8,West,9.2,-,0.00,Snow,Light Snow,280,2012-11-29 06:43:00
1:47 AM,28.4,23.0,80,30.03,3.0,WNW,10.4,16.1,0.00,Snow,Light Snow,290,2012-11-29 06:47:00
1:52 AM,28.9,21.9,75,30.08,8.0,WNW,5.8,19.6,0.00,Snow,Light Snow,300,2012-11-29 06:52:00
2:52 AM,28.0,19.9,72,30.10,7.0,WNW,5.8,-,0.00,Snow,Light Snow,300,2012-11-29 07:52:00
3:10 AM,26.6,19.4,74,30.06,9.0,NNW,4.6,-,0.00,Snow,Light Snow,330,2012-11-29 08:10:00
3:52 AM,27.0,16.0,63,30.12,10.0,NW,6.9,-,0.00,,Overcast,310,2012-11-29 08:52:00
4:10 AM,26.6,15.8,64,30.08,10.0,WNW,5.8,-,N/A,,Overcast,300,2012-11-29 09:10:00
4:36 AM,26.6,14.0,59,30.09,10.0,WNW,6.9,-,0.00,,Overcast,300,2012-11-29 09:36:00
4:52 AM,25.0,12.9,60,30.15,10.0,NW,6.9,-,0.00,,Mostly Cloudy,310,2012-11-29 09:52:00
5:52 AM,21.9,14.0,72,30.17,10.0,North,5.8,-,N/A,,Mostly Cloudy,350,2012-11-29 10:52:00
6:52 AM,21.9,9.0,58,30.18,10.0,Variable,6.9,-,N/A,,Mostly Cloudy,0,2012-11-29 11:52:00
7:52 AM,21.9,10.0,60,30.19,10.0,Calm,Calm,-,N/A,,Mostly Cloudy,0,2012-11-29 12:52:00
8:52 AM,21.9,10.0,60,30.17,10.0,Calm,Calm,-,N/A,,Clear,0,2012-11-29 13:52:00
9:52 AM,26.1,10.9,53,30.17,10.0,Variable,6.9,19.6,N/A,,Partly Cloudy,0,2012-11-29 14:52:00
10:52 AM,27.0,15.1,61,30.14,6.0,Variable,4.6,-,0.00,Snow,Light Snow,0,2012-11-29 15:52:00
11:52 AM,28.9,16.0,58,30.10,10.0,WSW,4.6,-,0.00,,Overcast,240,2012-11-29 16:52:00
12:52 PM,30.9,17.1,57,30.07,10.0,Calm,Calm,-,N/A,,Overcast,0,2012-11-29 17:52:00
1:52 PM,32.0,18.0,56,30.02,10.0,Variable,4.6,-,N/A,,Overcast,0,2012-11-29 18:52:00
2:52 PM,33.1,19.9,59,30.02,10.0,Variable,3.5,-,N/A,,Overcast,0,2012-11-29 19:52:00
3:52 PM,33.1,23.0,66,30.02,10.0,Variable,4.6,-,N/A,,Overcast,0,2012-11-29 20:52:00
4:12 PM,32.0,24.8,75,29.98,3.0,Variable,4.6,-,0.00,Snow,Light Snow,0,2012-11-29 21:12:00
4:52 PM,32.0,26.1,79,30.03,4.0,Variable,5.8,-,0.00,Snow,Light Snow,0,2012-11-29 21:52:00
5:20 PM,32.0,26.6,80,30.00,1.8,NW,3.5,-,0.00,Snow,Light Snow,320,2012-11-29 22:20:00
5:43 PM,32.0,26.6,80,30.00,2.5,Variable,3.5,-,0.00,Snow,Light Snow,0,2012-11-29 22:43:00
5:52 PM,32.0,27.0,82,30.05,2.0,Variable,4.6,-,0.00,Snow,Light Snow,0,2012-11-29 22:52:00
5:56 PM,32.0,26.6,80,30.00,3.0,WNW,3.5,-,0.00,Snow,Light Snow,290,2012-11-29 22:56:00
6:15 PM,30.2,26.6,86,30.00,1.8,NW,5.8,-,0.00,Snow,Light Snow,310,2012-11-29 23:15:00
6:20 PM,30.2,26.6,86,30.01,1.2,NNW,9.2,16.1,0.00,Snow,Light Snow,330,2012-11-29 23:20:00
6:24 PM,30.2,26.6,86,30.01,1.5,NNW,9.2,16.1,0.00,Snow,Light Snow,330,2012-11-29 23:24:00
6:52 PM,28.9,24.1,82,30.08,1.2,NW,8.1,18.4,0.01,Snow,Light Snow,320,2012-11-29 23:52:00
7:10 PM,28.4,23.0,80,30.03,2.0,NW,9.2,17.3,0.00,Snow,Light Snow,320,2012-11-30 00:10:00
7:34 PM,28.4,24.8,86,30.05,1.2,NNW,8.1,-,0.00,Snow,Light Snow,330,2012-11-30 00:34:00
7:42 PM,28.4,24.8,86,30.05,0.8,NNW,9.2,-,0.01,Snow,Light Snow,340,2012-11-30 00:42:00
7:50 PM,26.6,23.0,86,30.06,1.0,NNW,13.8,23.0,0.01,Snow,Light Snow,330,2012-11-30 00:50:00
7:52 PM,27.0,21.9,81,30.12,1.2,NW,12.7,23.0,0.01,Snow,Light Snow,320,2012-11-30 00:52:00
7:59 PM,26.6,19.4,74,30.07,2.0,NW,9.2,21.9,0.00,Snow,Light Snow,320,2012-11-30 00:59:00
8:32 PM,26.6,19.4,74,30.08,4.0,Variable,3.5,-,0.00,Snow,Light Snow,0,2012-11-30 01:32:00
8:42 PM,26.6,19.4,74,30.09,3.0,Variable,3.5,-,0.00,Snow,Light Snow,0,2012-11-30 01:42:00
8:52 PM,26.1,21.0,81,30.15,2.5,WNW,3.5,-,0.00,Snow,Light Snow,300,2012-11-30 01:52:00
9:03 PM,26.6,19.4,74,30.10,3.0,NW,4.6,-,0.00,Snow,Light Snow,310,2012-11-30 02:03:00
9:13 PM,24.8,19.4,80,30.10,1.8,NW,4.6,-,0.00,Snow,Light Snow,310,2012-11-30 02:13:00
9:38 PM,24.8,19.4,80,30.11,2.5,NW,6.9,-,0.00,Snow,Light Snow,320,2012-11-30 02:38:00
9:52 PM,25.0,17.1,72,30.18,5.0,NW,3.5,-,0.00,Snow,Light Snow,320,2012-11-30 02:52:00
10:52 PM,23.0,16.0,74,30.19,8.0,Variable,5.8,-,0.00,Snow,Light Snow,0,2012-11-30 03:52:00
11:27 PM,21.2,15.8,80,30.16,9.0,NW,9.2,-,0.00,,Overcast,320,2012-11-30 04:27:00
11:52 PM,19.9,10.9,68,30.23,8.0,NNW,11.5,-,0.00,Snow,Light Snow,340,2012-11-30 04:52:00